createdAt,value
2019-05-26T00:02:33.480Z,17.52
2019-05-26T00:05:22.385Z,20.75
2019-05-26T00:08:11.230Z,17.45
2019-05-26T00:11:00.173Z,13.55
2019-05-26T00:13:49.067Z,13.20
2019-05-26T00:16:37.913Z,14.80
2019-05-26T00:19:26.754Z,14.70
2019-05-26T00:22:15.676Z,12.10
2019-05-26T00:25:25.442Z,11.73
2019-05-26T00:28:14.277Z,12.43
2019-05-26T00:31:03.130Z,9.85
2019-05-26T00:33:45.438Z,13.53
2019-05-26T00:36:34.318Z,14.03
2019-05-26T00:39:23.170Z,11.43
2019-05-26T00:42:12.051Z,9.53
2019-05-26T00:45:00.958Z,7.97
2019-05-26T00:47:49.876Z,8.88
2019-05-26T00:50:38.710Z,8.73
2019-05-26T00:53:27.647Z,10.23
2019-05-26T00:56:16.573Z,7.40
2019-05-26T00:59:05.474Z,10.80
2019-05-26T01:01:54.334Z,8.40
2019-05-26T01:04:43.338Z,8.58
2019-05-26T01:07:32.184Z,7.90
2019-05-26T01:10:21.077Z,6.70
2019-05-26T01:13:10.016Z,13.03
2019-05-26T01:15:58.846Z,12.15
2019-05-26T01:18:47.692Z,13.38
2019-05-26T01:21:36.530Z,9.65
2019-05-26T01:24:25.383Z,11.05
2019-05-26T01:27:14.229Z,8.60
2019-05-26T01:30:03.187Z,10.78
2019-05-26T01:32:52.068Z,12.35
2019-05-26T01:35:41.273Z,9.48
2019-05-26T01:41:58.420Z,11.68
2019-05-26T01:44:47.263Z,9.98
2019-05-26T01:47:36.111Z,11.93
2019-05-26T01:50:24.978Z,10.50
2019-05-26T01:53:13.847Z,9.08
2019-05-26T01:56:02.767Z,12.35
2019-05-26T01:58:51.593Z,11.97
2019-05-26T02:01:40.478Z,11.28
2019-05-26T02:04:29.358Z,11.90
2019-05-26T02:07:18.194Z,12.45
2019-05-26T02:10:26.472Z,19.45
2019-05-26T02:13:15.316Z,13.53
2019-05-26T02:16:04.357Z,13.45
2019-05-26T02:18:53.228Z,11.88
2019-05-26T02:21:42.052Z,12.80
2019-05-26T02:24:30.933Z,16.57
2019-05-26T02:27:19.776Z,15.25
2019-05-26T02:30:28.214Z,15.17
2019-05-26T02:33:10.403Z,19.50
2019-05-26T02:35:59.313Z,16.23
2019-05-26T02:39:01.348Z,15.40
2019-05-26T02:41:38.798Z,18.60
2019-05-26T02:44:27.644Z,20.50
2019-05-26T02:47:16.521Z,18.70
2019-05-26T02:50:24.932Z,20.80
2019-05-26T02:53:13.862Z,22.17
2019-05-26T02:56:02.759Z,16.77
2019-05-26T02:58:51.626Z,16.83
2019-05-26T03:02:00.968Z,18.80
2019-05-26T03:04:31.113Z,16.57
2019-05-26T03:07:20.028Z,20.50
2019-05-26T03:10:29.766Z,20.63
2019-05-26T03:13:18.752Z,18.40
2019-05-26T03:25:51.680Z,24.80
2019-05-26T03:28:40.533Z,22.62
2019-05-26T03:31:29.448Z,23.10
2019-05-26T03:34:11.716Z,25.55
2019-05-26T03:37:00.607Z,21.10
2019-05-26T03:39:49.479Z,23.47
2019-05-26T03:42:38.401Z,22.75
2019-05-26T03:45:48.186Z,22.27
2019-05-26T03:48:37.043Z,24.35
2019-05-26T03:51:25.912Z,20.03
2019-05-26T03:54:14.767Z,23.90
2019-05-26T03:57:03.697Z,24.10
2019-05-26T03:59:52.555Z,21.53
2019-05-26T04:02:41.423Z,24.43
2019-05-26T04:05:30.281Z,26.87
2019-05-26T04:08:19.130Z,25.60
2019-05-26T04:11:07.970Z,23.13
2019-05-26T04:13:56.842Z,23.23
2019-05-26T04:16:45.687Z,21.45
2019-05-26T04:19:34.544Z,24.93
2019-05-26T04:22:04.121Z,23.07
2019-05-26T04:24:33.650Z,25.17
2019-05-26T04:27:22.473Z,23.77
2019-05-26T04:30:11.460Z,31.33
2019-05-26T04:33:00.326Z,24.90
2019-05-26T04:35:41.837Z,26.73
2019-05-26T04:38:30.760Z,26.57
2019-05-26T04:41:19.600Z,26.90
2019-05-26T04:44:08.447Z,31.30
2019-05-26T04:46:57.365Z,29.53
2019-05-26T04:49:46.227Z,29.80
2019-05-26T04:52:35.204Z,33.80
2019-05-26T04:55:24.043Z,28.73
2019-05-26T04:58:12.893Z,31.20
2019-05-26T05:01:01.761Z,30.23
2019-05-26T05:03:50.626Z,27.80
2019-05-26T05:06:39.471Z,30.60
2019-05-26T05:09:28.335Z,30.20
2019-05-26T05:12:17.171Z,35.03
2019-05-26T05:15:26.898Z,34.87
2019-05-26T05:18:15.762Z,34.63
2019-05-26T05:21:04.695Z,31.30
2019-05-26T05:23:53.584Z,28.63
2019-05-26T05:26:42.521Z,28.93
2019-05-26T05:29:31.339Z,27.87
2019-05-26T05:35:21.524Z,25.53
2019-05-26T05:38:10.384Z,26.10
2019-05-26T05:41:00.389Z,26.77
2019-05-26T05:43:49.796Z,23.90
2019-05-26T05:46:38.706Z,28.20
2019-05-26T05:49:27.548Z,27.30
2019-05-26T05:52:16.471Z,25.80
2019-05-26T05:55:05.880Z,28.77
2019-05-26T05:57:54.713Z,25.53
2019-05-26T06:00:43.566Z,23.03
2019-05-26T06:03:32.409Z,28.03
2019-05-26T06:06:21.383Z,24.83
2019-05-26T06:09:10.214Z,21.97
2019-05-26T06:11:59.084Z,22.67
2019-05-26T06:14:47.918Z,21.57
2019-05-26T06:17:36.767Z,20.70
2019-05-26T06:20:25.764Z,17.97
2019-05-26T06:23:14.639Z,19.30
2019-05-26T06:26:03.511Z,18.17
2019-05-26T06:28:52.814Z,23.80
2019-05-26T06:31:43.005Z,19.83
2019-05-26T06:34:31.875Z,18.67
2019-05-26T06:37:13.641Z,20.60
2019-05-26T06:40:02.566Z,14.73
2019-05-26T06:42:51.442Z,19.00
2019-05-26T06:45:40.270Z,20.67
2019-05-26T06:48:29.116Z,18.93
2019-05-26T06:51:17.951Z,17.03
2019-05-26T06:54:06.824Z,14.80
2019-05-26T06:56:55.653Z,14.00
2019-05-26T06:59:44.580Z,16.30
2019-05-26T07:02:33.412Z,11.80
2019-05-26T07:05:22.300Z,11.50
2019-05-26T07:08:11.211Z,12.30
2019-05-26T07:11:00.122Z,12.90
2019-05-26T07:13:49.010Z,13.70
2019-05-26T07:16:38.887Z,12.63
2019-05-26T07:19:28.434Z,9.93
2019-05-26T07:22:17.277Z,10.93
2019-05-26T07:25:27.010Z,9.63
2019-05-26T07:28:15.839Z,10.63
2019-05-26T07:31:04.834Z,9.63
2019-05-26T07:33:53.634Z,12.87
2019-05-26T07:36:35.453Z,10.27
2019-05-26T07:39:24.382Z,10.80
2019-05-26T07:42:13.253Z,9.87
2019-05-26T07:45:02.056Z,10.53
2019-05-26T07:47:50.913Z,10.57
2019-05-26T07:50:39.801Z,9.00
2019-05-26T07:53:28.686Z,10.53
2019-05-26T07:56:17.508Z,11.90
2019-05-26T07:59:06.367Z,9.73
2019-05-26T08:01:55.379Z,7.53
2019-05-26T08:04:44.239Z,8.83
2019-05-26T08:07:33.133Z,8.30
2019-05-26T08:10:22.205Z,7.00
2019-05-26T08:13:11.065Z,9.40
2019-05-26T08:15:59.932Z,7.10
2019-05-26T08:18:48.749Z,7.50
2019-05-26T08:21:37.600Z,10.43
2019-05-26T08:24:26.435Z,7.90
2019-05-26T08:27:15.266Z,6.83
2019-05-26T08:33:32.586Z,5.90
2019-05-26T08:36:14.160Z,5.03
2019-05-26T08:41:58.793Z,5.40
2019-05-26T08:44:47.638Z,6.40
2019-05-26T08:47:36.491Z,5.20
2019-05-26T08:50:25.365Z,4.37
2019-05-26T08:53:14.289Z,5.30
2019-05-26T08:56:09.952Z,5.30
2019-05-26T08:58:58.820Z,4.73
2019-05-26T09:01:47.647Z,4.40
2019-05-26T09:04:36.545Z,4.03
2019-05-26T09:07:25.353Z,3.80
2019-05-26T09:10:14.536Z,8.73
2019-05-26T09:13:03.382Z,3.40
2019-05-26T09:15:52.195Z,3.43
2019-05-26T09:18:21.711Z,3.17
2019-05-26T09:21:10.553Z,3.17
2019-05-26T09:23:59.407Z,4.13
2019-05-26T09:26:48.226Z,3.70
2019-05-26T09:29:37.165Z,2.30
2019-05-26T09:32:25.982Z,5.63
2019-05-26T09:35:08.584Z,4.00
2019-05-26T09:37:57.386Z,2.60
2019-05-26T09:40:46.246Z,4.50
2019-05-26T09:43:35.095Z,3.17
2019-05-26T09:46:23.926Z,2.40
2019-05-26T09:49:12.762Z,5.00
2019-05-26T09:52:01.613Z,3.70
2019-05-26T09:54:50.465Z,3.87
2019-05-26T09:57:39.302Z,2.43
2019-05-26T10:00:28.224Z,2.87
2019-05-26T10:03:17.040Z,3.50
2019-05-26T10:06:05.908Z,2.60
2019-05-26T10:08:54.813Z,1.93
2019-05-26T10:11:43.767Z,3.63
2019-05-26T10:14:32.597Z,3.70
2019-05-26T10:17:23.342Z,2.43
2019-05-26T10:20:32.986Z,2.67
2019-05-26T10:23:21.813Z,3.17
2019-05-26T10:26:10.663Z,3.10
2019-05-26T10:29:00.654Z,2.50
2019-05-26T10:31:50.038Z,4.00
2019-05-26T10:34:19.557Z,4.17
2019-05-26T10:37:01.698Z,3.07
2019-05-26T10:39:50.556Z,2.30
2019-05-26T10:42:39.455Z,3.53
2019-05-26T10:45:49.203Z,2.30
2019-05-26T10:48:38.117Z,2.10
2019-05-26T10:51:26.975Z,2.03
2019-05-26T10:54:15.875Z,11.10
2019-05-26T10:57:04.977Z,1.90
2019-05-26T10:59:53.826Z,2.80
2019-05-26T11:02:42.675Z,2.13
2019-05-26T11:05:31.532Z,2.30
2019-05-26T11:08:20.332Z,3.87
2019-05-26T11:11:09.186Z,6.13
2019-05-26T11:14:02.932Z,3.50
2019-05-26T11:16:48.672Z,2.57
2019-05-26T11:19:37.500Z,4.00
2019-05-26T11:22:26.427Z,5.17
2019-05-26T11:25:36.162Z,2.40
2019-05-26T11:28:25.032Z,2.73
2019-05-26T11:31:13.856Z,5.30
2019-05-26T11:34:21.974Z,3.10
2019-05-26T11:37:03.669Z,2.67
2019-05-26T11:39:52.553Z,2.40
2019-05-26T11:42:44.578Z,2.77
2019-05-26T11:45:32.019Z,2.17
2019-05-26T11:48:20.915Z,2.17
2019-05-26T11:51:09.770Z,2.07
2019-05-26T11:53:58.596Z,4.40
2019-05-26T11:56:28.192Z,2.30
2019-05-26T11:59:17.099Z,4.30
2019-05-26T12:02:05.944Z,2.90
2019-05-26T12:04:54.775Z,2.10
2019-05-26T12:07:43.627Z,1.90
2019-05-26T12:10:32.440Z,3.30
2019-05-26T12:13:21.296Z,1.83
2019-05-26T12:16:10.394Z,3.37
2019-05-26T12:18:59.249Z,1.97
2019-05-26T12:21:48.084Z,2.17
2019-05-26T12:24:36.927Z,2.07
2019-05-26T12:27:25.805Z,2.07
2019-05-26T12:30:14.971Z,2.37
2019-05-26T12:33:03.884Z,1.90
2019-05-26T12:35:49.484Z,2.30
2019-05-26T12:41:37.123Z,3.80
2019-05-26T12:44:24.870Z,4.10
2019-05-26T12:47:13.765Z,3.03
2019-05-26T12:50:02.735Z,2.17
2019-05-26T12:52:51.630Z,3.00
2019-05-26T12:55:40.488Z,2.30
2019-05-26T12:58:29.328Z,3.47
2019-05-26T13:01:18.300Z,3.47
2019-05-26T13:04:07.210Z,2.23
2019-05-26T13:06:56.129Z,2.43
2019-05-26T13:09:44.986Z,5.37
2019-05-26T13:12:33.828Z,4.13
2019-05-26T13:15:23.027Z,6.70
2019-05-26T13:18:11.961Z,3.10
2019-05-26T13:21:00.848Z,2.43
2019-05-26T13:23:49.697Z,3.00
2019-05-26T13:26:38.528Z,3.03
2019-05-26T13:29:27.429Z,2.40
2019-05-26T13:32:16.350Z,2.47
2019-05-26T13:35:26.128Z,2.63
2019-05-26T13:38:08.018Z,3.40
2019-05-26T13:40:56.889Z,2.80
2019-05-26T13:43:45.756Z,2.90
2019-05-26T13:46:34.586Z,3.10
2019-05-26T13:49:23.484Z,2.77
2019-05-26T13:52:12.362Z,4.20
2019-05-26T13:55:01.284Z,2.63
2019-05-26T13:57:50.230Z,2.57
2019-05-26T14:00:39.142Z,3.70
2019-05-26T14:03:28.042Z,3.47
2019-05-26T14:06:16.858Z,7.03
2019-05-26T14:09:26.699Z,5.20
2019-05-26T14:12:15.549Z,3.70
2019-05-26T14:15:37.474Z,4.20
2019-05-26T14:18:18.121Z,2.50
2019-05-26T14:21:06.712Z,2.90
2019-05-26T14:23:55.613Z,3.33
2019-05-26T14:26:44.546Z,3.20
2019-05-26T14:29:33.481Z,3.70
2019-05-26T14:32:22.366Z,5.53
2019-05-26T14:35:11.859Z,4.23
2019-05-26T14:37:54.140Z,2.70
2019-05-26T14:40:43.197Z,3.50
2019-05-26T14:43:32.042Z,4.87
2019-05-26T14:46:20.970Z,3.97
2019-05-26T14:49:09.973Z,3.40
2019-05-26T14:51:58.886Z,2.90
2019-05-26T14:54:47.846Z,3.63
2019-05-26T14:57:38.448Z,3.97
2019-05-26T15:00:27.574Z,2.50
2019-05-26T15:03:16.446Z,3.13
2019-05-26T15:06:06.350Z,3.43
2019-05-26T15:11:31.583Z,3.17
2019-05-26T15:14:20.474Z,3.10
2019-05-26T15:17:09.410Z,5.90
2019-05-26T15:19:58.274Z,5.13
2019-05-26T15:22:47.167Z,3.07
2019-05-26T15:25:36.042Z,8.73
2019-05-26T15:28:24.972Z,3.10
2019-05-26T15:31:13.806Z,4.90
2019-05-26T15:34:02.686Z,6.00
2019-05-26T15:36:51.513Z,4.07
2019-05-26T15:39:33.414Z,4.37
2019-05-26T15:42:22.273Z,2.83
2019-05-26T15:48:25.715Z,3.10
2019-05-26T15:51:14.636Z,2.50
2019-05-26T15:54:03.506Z,2.70
2019-05-26T15:56:52.393Z,2.90
2019-05-26T15:59:41.280Z,3.60
2019-05-26T16:02:30.146Z,3.90
2019-05-26T16:05:19.175Z,2.97
2019-05-26T16:08:08.043Z,3.40
2019-05-26T16:10:56.939Z,3.07
2019-05-26T16:13:45.843Z,3.30
2019-05-26T16:16:41.297Z,3.40
2019-05-26T16:22:03.720Z,4.40
2019-05-26T16:24:52.581Z,3.17
2019-05-26T16:27:41.420Z,3.43
2019-05-26T16:30:30.293Z,3.40
2019-05-26T16:33:19.125Z,3.37
2019-05-26T16:36:07.992Z,3.60
2019-05-26T16:38:49.902Z,3.23
2019-05-26T16:41:38.848Z,3.40
2019-05-26T16:44:27.834Z,4.27
2019-05-26T16:47:16.771Z,3.57
2019-05-26T16:50:25.060Z,4.07
2019-05-26T16:53:13.882Z,3.63
2019-05-26T16:56:02.807Z,4.33
2019-05-26T16:58:51.685Z,3.13
2019-05-26T17:01:40.545Z,2.47
2019-05-26T17:04:29.412Z,3.37
2019-05-26T17:07:18.416Z,2.73
2019-05-26T17:13:03.150Z,3.73
2019-05-26T17:15:52.083Z,3.10
2019-05-26T17:18:40.978Z,5.27
2019-05-26T17:21:29.867Z,2.67
2019-05-26T17:24:18.732Z,6.80
2019-05-26T17:27:07.559Z,3.83
2019-05-26T17:29:56.419Z,3.50
2019-05-26T17:33:04.376Z,4.13
2019-05-26T17:35:53.230Z,12.07
2019-05-26T17:38:22.712Z,3.60
2019-05-26T17:41:11.569Z,3.13
2019-05-26T17:43:41.055Z,3.13
2019-05-26T17:46:10.555Z,4.83
2019-05-26T17:48:40.173Z,2.93
2019-05-26T17:51:09.821Z,3.30
2019-05-26T17:53:39.365Z,5.07
2019-05-26T17:56:08.890Z,3.20
2019-05-26T17:58:38.457Z,4.10
2019-05-26T18:01:08.028Z,3.40
2019-05-26T18:03:37.590Z,5.10
2019-05-26T18:06:07.290Z,2.93
2019-05-26T18:08:37.270Z,2.37
2019-05-26T18:11:06.874Z,5.83
2019-05-26T18:13:36.497Z,3.60
2019-05-26T18:16:06.072Z,4.20
2019-05-26T18:18:35.637Z,3.67
2019-05-26T18:21:05.375Z,2.73
2019-05-26T18:23:34.904Z,3.00
2019-05-26T18:26:04.763Z,5.90
2019-05-26T18:28:34.484Z,4.10
2019-05-26T18:31:04.137Z,3.10
2019-05-26T18:33:33.613Z,4.17
2019-05-26T18:36:03.171Z,3.33
2019-05-26T18:38:32.773Z,3.90
2019-05-26T18:41:02.413Z,3.40
2019-05-26T18:43:31.999Z,2.73
2019-05-26T18:46:01.593Z,5.97
2019-05-26T18:48:31.103Z,4.97
2019-05-26T18:51:00.748Z,3.80
2019-05-26T18:53:30.317Z,5.00
2019-05-26T18:55:59.898Z,3.70
2019-05-26T18:58:31.031Z,4.03
2019-05-26T19:01:01.519Z,4.00
2019-05-26T19:03:31.056Z,5.20
2019-05-26T19:06:00.628Z,3.53
2019-05-26T19:08:30.189Z,3.17
2019-05-26T19:10:59.724Z,3.30
2019-05-26T19:13:29.250Z,3.20
2019-05-26T19:15:58.799Z,4.10
2019-05-26T19:18:28.289Z,4.30
2019-05-26T19:20:57.899Z,4.70
2019-05-26T19:23:27.466Z,3.90
2019-05-26T19:25:57.020Z,4.33
2019-05-26T19:28:26.534Z,4.57
2019-05-26T19:30:56.141Z,4.00
2019-05-26T19:33:25.722Z,5.87
2019-05-26T19:35:55.250Z,4.43
2019-05-26T19:38:24.882Z,4.13
2019-05-26T19:40:54.378Z,5.30
2019-05-26T19:43:23.967Z,4.57
2019-05-26T19:45:53.571Z,4.50
2019-05-26T19:48:35.817Z,4.40
2019-05-26T19:50:54.328Z,5.17
2019-05-26T19:53:23.919Z,5.07
2019-05-26T19:55:53.414Z,5.63
2019-05-26T19:58:22.938Z,4.47
2019-05-26T20:00:52.511Z,4.47
2019-05-26T20:03:22.117Z,4.30
2019-05-26T20:05:51.631Z,6.00
2019-05-26T20:08:21.133Z,4.40
2019-05-26T20:10:50.680Z,4.23
2019-05-26T20:13:20.176Z,6.00
2019-05-26T20:15:49.731Z,5.13
2019-05-26T20:18:19.359Z,6.20
2019-05-26T20:20:48.984Z,4.43
2019-05-26T20:23:18.461Z,4.40
2019-05-26T20:25:47.946Z,5.40
2019-05-26T20:28:17.454Z,3.80
2019-05-26T20:30:46.972Z,5.40
2019-05-26T20:33:16.597Z,4.13
2019-05-26T20:35:46.108Z,4.20
2019-05-26T20:38:15.707Z,3.70
2019-05-26T20:40:45.938Z,3.47
2019-05-26T20:43:15.488Z,5.77
2019-05-26T20:45:44.977Z,3.23
2019-05-26T20:48:14.534Z,4.60
2019-05-26T20:50:44.016Z,4.17
2019-05-26T20:53:13.546Z,4.20
2019-05-26T20:55:43.112Z,3.50
2019-05-26T20:58:12.691Z,4.87
2019-05-26T21:00:42.180Z,7.00
2019-05-26T21:03:11.689Z,3.47
2019-05-26T21:05:41.269Z,4.17
2019-05-26T21:08:10.835Z,4.80
2019-05-26T21:10:40.466Z,7.80
2019-05-26T21:13:09.988Z,6.40
2019-05-26T21:15:39.485Z,6.67
2019-05-26T21:18:09.159Z,5.10
2019-05-26T21:20:38.758Z,5.63
2019-05-26T21:23:08.299Z,7.07
2019-05-26T21:25:37.822Z,7.30
2019-05-26T21:28:07.421Z,6.03
2019-05-26T21:30:37.004Z,6.80
2019-05-26T21:33:06.797Z,7.60
2019-05-26T21:35:36.380Z,8.70
2019-05-26T21:38:05.960Z,9.63
2019-05-26T21:40:35.519Z,8.20
2019-05-26T21:43:05.242Z,11.10
2019-05-26T21:45:34.775Z,9.43
2019-05-26T21:48:04.632Z,7.00
2019-05-26T21:50:34.121Z,11.07
2019-05-26T21:53:03.627Z,6.33
2019-05-26T21:55:33.126Z,8.20
2019-05-26T21:58:02.774Z,6.53
2019-05-26T22:00:36.963Z,10.73
2019-05-26T22:03:06.565Z,6.80
2019-05-26T22:05:36.175Z,7.47
2019-05-26T22:08:05.832Z,8.03
2019-05-26T22:10:35.339Z,6.70
2019-05-26T22:13:05.046Z,7.30
2019-05-26T22:15:34.602Z,7.53
2019-05-26T22:18:04.184Z,6.30
2019-05-26T22:20:33.678Z,9.70
2019-05-26T22:23:03.205Z,6.70
2019-05-26T22:25:32.693Z,6.83
2019-05-26T22:28:02.201Z,9.40
2019-05-26T22:30:31.699Z,7.23
2019-05-26T22:33:01.364Z,6.13
2019-05-26T22:35:30.928Z,8.03
2019-05-26T22:38:00.417Z,8.37
2019-05-26T22:40:30.069Z,6.80
2019-05-26T22:42:59.572Z,7.77
2019-05-26T22:45:29.067Z,8.03
2019-05-26T22:47:58.645Z,9.17
2019-05-26T22:50:28.174Z,10.30
2019-05-26T22:52:57.662Z,8.00
2019-05-26T22:55:27.174Z,12.67
2019-05-26T22:57:56.687Z,7.87
2019-05-26T23:00:26.488Z,7.03
2019-05-26T23:02:55.981Z,8.70
2019-05-26T23:05:25.477Z,6.50
2019-05-26T23:07:55.008Z,8.93
2019-05-26T23:10:24.509Z,7.57
2019-05-26T23:12:53.995Z,7.27
2019-05-26T23:15:23.626Z,9.23
2019-05-26T23:17:53.178Z,6.60
2019-05-26T23:20:22.812Z,8.07
2019-05-26T23:22:52.329Z,8.00
2019-05-26T23:25:21.987Z,6.63
2019-05-26T23:27:51.643Z,6.90
2019-05-26T23:30:21.485Z,6.27
2019-05-26T23:32:52.131Z,8.27
2019-05-26T23:35:21.613Z,4.77
2019-05-26T23:37:51.095Z,5.33
2019-05-26T23:40:20.654Z,7.57
2019-05-26T23:42:50.137Z,5.47
2019-05-26T23:45:19.629Z,4.07
2019-05-26T23:47:49.158Z,5.60
2019-05-26T23:50:18.644Z,5.60
2019-05-26T23:52:48.197Z,4.83
2019-05-26T23:55:17.770Z,4.00
2019-05-26T23:57:47.357Z,6.53
